createdAt,value
2022-12-06T00:01:33.412Z,6.06
2022-12-06T00:03:48.504Z,6.04
2022-12-06T00:06:07.343Z,6.02
2022-12-06T00:08:20.925Z,5.99
2022-12-06T00:10:37.361Z,5.96
2022-12-06T00:12:51.307Z,5.89
2022-12-06T00:15:05.235Z,5.84
2022-12-06T00:17:19.000Z,5.76
2022-12-06T00:19:32.453Z,5.69
2022-12-06T00:21:48.467Z,5.64
2022-12-06T00:24:04.074Z,5.60
2022-12-06T00:26:18.357Z,5.57
2022-12-06T00:28:32.485Z,5.56
2022-12-06T00:30:46.438Z,5.53
2022-12-06T00:33:00.573Z,5.48
2022-12-06T00:35:15.021Z,5.39
2022-12-06T00:37:30.275Z,5.33
2022-12-06T00:39:43.441Z,5.23
2022-12-06T00:41:58.077Z,5.18
2022-12-06T00:44:12.019Z,5.15
2022-12-06T00:46:28.238Z,5.10
2022-12-06T00:48:42.842Z,5.06
2022-12-06T00:50:57.391Z,5.03
2022-12-06T00:53:10.736Z,5.02
2022-12-06T00:55:24.824Z,4.99
2022-12-06T00:57:39.162Z,4.95
2022-12-06T00:59:53.086Z,4.92
2022-12-06T01:02:08.417Z,4.86
2022-12-06T01:04:22.318Z,4.81
2022-12-06T01:06:37.447Z,4.73
2022-12-06T01:08:50.948Z,4.65
2022-12-06T01:11:05.251Z,4.61
2022-12-06T01:13:18.276Z,4.56
2022-12-06T01:15:32.218Z,4.53
2022-12-06T01:17:46.315Z,4.48
2022-12-06T01:19:59.638Z,4.42
2022-12-06T01:22:12.899Z,4.35
2022-12-06T01:24:26.679Z,4.29
2022-12-06T01:26:40.522Z,4.24
2022-12-06T01:28:54.280Z,4.22
2022-12-06T01:31:12.258Z,4.20
2022-12-06T01:33:25.156Z,4.19
2022-12-06T01:35:41.909Z,4.18
2022-12-06T01:37:55.813Z,4.19
2022-12-06T01:40:09.893Z,4.19
2022-12-06T01:42:24.720Z,4.21
2022-12-06T01:44:49.181Z,4.22
2022-12-06T01:47:03.097Z,4.22
2022-12-06T01:49:24.769Z,4.23
2022-12-06T01:51:38.999Z,4.24
2022-12-06T01:53:56.776Z,4.25
2022-12-06T01:56:11.863Z,4.25
2022-12-06T01:58:31.690Z,4.25
2022-12-06T02:00:45.211Z,4.26
2022-12-06T02:03:00.893Z,4.26
2022-12-06T02:05:15.351Z,4.24
2022-12-06T02:07:30.118Z,4.22
2022-12-06T02:09:44.643Z,4.20
2022-12-06T02:11:58.188Z,4.17
2022-12-06T02:14:16.630Z,4.16
2022-12-06T02:16:46.338Z,4.14
2022-12-06T02:19:04.053Z,4.10
2022-12-06T02:21:28.267Z,4.04
2022-12-06T02:24:12.051Z,4.00
2022-12-06T02:26:42.548Z,3.97
2022-12-06T02:29:25.301Z,3.92
2022-12-06T02:31:45.088Z,3.85
2022-12-06T02:34:04.211Z,3.79
2022-12-06T02:36:25.757Z,3.77
2022-12-06T02:38:45.269Z,3.72
2022-12-06T02:41:02.702Z,3.68
2022-12-06T02:43:20.996Z,3.64
2022-12-06T02:45:37.001Z,3.62
2022-12-06T02:47:52.688Z,3.59
2022-12-06T02:50:09.942Z,3.57
2022-12-06T02:52:27.035Z,3.51
2022-12-06T02:54:40.412Z,3.46
2022-12-06T02:56:53.663Z,3.43
2022-12-06T02:59:08.484Z,3.41
2022-12-06T03:01:26.596Z,3.40
2022-12-06T03:04:15.461Z,3.37
2022-12-06T03:06:52.343Z,3.32
2022-12-06T03:09:16.506Z,3.28
2022-12-06T03:11:35.059Z,3.24
2022-12-06T03:13:57.795Z,3.23
2022-12-06T03:16:20.604Z,3.25
2022-12-06T03:18:37.809Z,3.22
2022-12-06T03:20:55.113Z,3.17
2022-12-06T03:23:11.208Z,3.11
2022-12-06T03:25:24.536Z,3.07
2022-12-06T03:27:39.133Z,3.05
2022-12-06T03:30:02.628Z,3.05
2022-12-06T03:32:18.771Z,3.04
2022-12-06T03:34:36.186Z,3.02
2022-12-06T03:36:52.305Z,3.00
2022-12-06T03:39:09.760Z,2.99
2022-12-06T03:41:24.937Z,2.99
2022-12-06T03:43:39.136Z,2.98
2022-12-06T03:45:58.803Z,3.00
2022-12-06T03:48:17.716Z,2.98
2022-12-06T03:50:35.765Z,2.96
2022-12-06T03:52:48.758Z,2.93
2022-12-06T03:55:01.698Z,2.91
2022-12-06T03:57:15.640Z,2.88
2022-12-06T03:59:28.291Z,2.86
2022-12-06T04:01:42.898Z,2.84
2022-12-06T04:03:56.730Z,2.83
2022-12-06T04:06:11.537Z,2.83
2022-12-06T04:08:24.560Z,2.82
2022-12-06T04:10:38.288Z,2.82
2022-12-06T04:13:07.222Z,2.80
2022-12-06T04:15:21.676Z,2.78
2022-12-06T04:17:52.574Z,2.77
2022-12-06T04:20:05.433Z,2.79
2022-12-06T04:22:35.313Z,2.78
2022-12-06T04:24:48.853Z,2.76
2022-12-06T04:27:24.015Z,2.73
2022-12-06T04:29:55.817Z,2.67
2022-12-06T04:32:28.769Z,2.63
2022-12-06T04:35:00.554Z,2.60
2022-12-06T04:37:31.449Z,2.59
2022-12-06T04:39:44.295Z,2.59
2022-12-06T04:42:15.667Z,2.57
2022-12-06T04:44:28.887Z,2.55
2022-12-06T04:46:42.977Z,2.52
2022-12-06T04:48:55.973Z,2.53
2022-12-06T04:51:14.365Z,2.53
2022-12-06T04:53:27.322Z,2.51
2022-12-06T04:55:40.855Z,2.50
2022-12-06T04:57:54.996Z,2.50
2022-12-06T05:00:09.154Z,2.50
2022-12-06T05:02:22.965Z,2.48
2022-12-06T05:04:37.371Z,2.47
2022-12-06T05:06:51.201Z,2.48
2022-12-06T05:09:04.586Z,2.48
2022-12-06T05:11:18.465Z,2.49
2022-12-06T05:13:32.967Z,2.48
2022-12-06T05:15:54.960Z,2.46
2022-12-06T05:18:08.951Z,2.47
2022-12-06T05:20:22.779Z,2.48
2022-12-06T05:22:37.994Z,2.49
2022-12-06T05:24:52.844Z,2.52
2022-12-06T05:27:06.145Z,2.55
2022-12-06T05:29:20.217Z,2.58
2022-12-06T05:31:33.971Z,2.61
2022-12-06T05:33:48.188Z,2.63
2022-12-06T05:36:02.027Z,2.65
2022-12-06T05:38:15.164Z,2.67
2022-12-06T05:40:29.155Z,2.68
2022-12-06T05:42:42.986Z,2.68
2022-12-06T05:44:56.392Z,2.69
2022-12-06T05:47:09.581Z,2.69
2022-12-06T05:49:23.836Z,2.71
2022-12-06T05:51:37.370Z,2.70
2022-12-06T05:53:51.611Z,2.69
2022-12-06T05:56:10.059Z,2.70
2022-12-06T05:58:23.678Z,2.70
2022-12-06T06:00:37.676Z,2.68
2022-12-06T06:02:52.250Z,2.69
2022-12-06T06:05:05.789Z,2.68
2022-12-06T06:07:19.135Z,2.68
2022-12-06T06:09:34.340Z,2.70
2022-12-06T06:11:48.166Z,2.70
2022-12-06T06:14:01.247Z,2.72
2022-12-06T06:16:15.263Z,2.73
2022-12-06T06:18:29.720Z,2.74
2022-12-06T06:20:43.558Z,2.72
2022-12-06T06:22:57.271Z,2.73
2022-12-06T06:25:11.830Z,2.73
2022-12-06T06:27:25.354Z,2.73
2022-12-06T06:29:44.962Z,2.72
2022-12-06T06:31:59.301Z,2.72
2022-12-06T06:34:13.172Z,2.70
2022-12-06T06:36:27.697Z,2.70
2022-12-06T06:38:41.936Z,2.68
2022-12-06T06:40:55.631Z,2.67
2022-12-06T06:43:21.850Z,2.63
2022-12-06T06:45:35.547Z,2.60
2022-12-06T06:47:50.623Z,2.57
2022-12-06T06:50:03.894Z,2.51
2022-12-06T06:52:17.993Z,2.48
2022-12-06T06:54:32.223Z,2.46
2022-12-06T06:56:46.513Z,2.45
2022-12-06T06:59:00.560Z,2.43
2022-12-06T07:01:19.534Z,2.39
2022-12-06T07:03:33.781Z,2.36
2022-12-06T07:05:47.372Z,2.33
2022-12-06T07:08:01.662Z,2.30
2022-12-06T07:10:16.622Z,2.28
2022-12-06T07:12:30.024Z,2.25
2022-12-06T07:14:44.161Z,2.24
2022-12-06T07:16:57.385Z,2.23
2022-12-06T07:19:10.413Z,2.21
2022-12-06T07:21:24.727Z,2.17
2022-12-06T07:23:39.860Z,2.16
2022-12-06T07:26:03.003Z,2.14
2022-12-06T07:28:17.248Z,2.12
2022-12-06T07:30:31.069Z,2.10
2022-12-06T07:32:45.313Z,2.11
2022-12-06T07:34:58.003Z,2.11
2022-12-06T07:37:13.294Z,2.09
2022-12-06T07:39:27.674Z,2.09
2022-12-06T07:41:58.239Z,2.07
2022-12-06T07:44:55.595Z,2.12
2022-12-06T07:47:14.591Z,2.11
2022-12-06T07:49:28.474Z,2.09
2022-12-06T07:51:42.832Z,2.07
2022-12-06T07:53:55.822Z,2.06
2022-12-06T07:56:14.544Z,2.05
2022-12-06T07:58:28.165Z,2.03
2022-12-06T08:00:42.494Z,2.03
2022-12-06T08:02:56.540Z,2.06
2022-12-06T08:05:11.180Z,2.08
2022-12-06T08:07:25.664Z,2.11
2022-12-06T08:09:39.597Z,2.14
2022-12-06T08:11:52.783Z,2.17
2022-12-06T08:14:06.854Z,2.21
2022-12-06T08:16:21.180Z,2.23
2022-12-06T08:18:34.854Z,2.26
2022-12-06T08:20:47.560Z,2.28
2022-12-06T08:23:01.502Z,2.31
2022-12-06T08:25:15.377Z,2.32
2022-12-06T08:27:28.186Z,2.33
2022-12-06T08:29:41.125Z,2.30
2022-12-06T08:31:55.142Z,2.28
2022-12-06T08:34:08.134Z,2.26
2022-12-06T08:36:23.366Z,2.23
2022-12-06T08:38:37.164Z,2.21
2022-12-06T08:40:51.159Z,2.19
2022-12-06T08:43:05.340Z,2.17
2022-12-06T08:45:18.176Z,2.17
2022-12-06T08:47:30.913Z,2.17
2022-12-06T08:49:44.448Z,2.16
2022-12-06T08:51:57.911Z,2.15
2022-12-06T08:54:12.911Z,2.13
2022-12-06T08:56:26.923Z,2.10
2022-12-06T08:58:39.769Z,2.04
2022-12-06T09:00:52.659Z,2.01
2022-12-06T09:03:05.970Z,1.99
2022-12-06T09:05:20.063Z,1.99
2022-12-06T09:07:34.145Z,1.99
2022-12-06T09:09:48.693Z,1.97
2022-12-06T09:12:02.402Z,1.95
2022-12-06T09:14:21.406Z,1.92
2022-12-06T09:16:34.793Z,1.88
2022-12-06T09:18:49.688Z,1.86
2022-12-06T09:21:02.435Z,1.84
2022-12-06T09:23:16.586Z,1.83
2022-12-06T09:25:30.513Z,1.82
2022-12-06T09:27:44.989Z,1.83
2022-12-06T09:29:59.053Z,1.82
2022-12-06T09:32:13.187Z,1.83
2022-12-06T09:34:26.256Z,1.83
2022-12-06T09:36:45.154Z,1.83
2022-12-06T09:39:03.340Z,1.84
2022-12-06T09:41:30.435Z,1.85
2022-12-06T09:43:56.956Z,1.86
2022-12-06T09:46:47.089Z,1.87
2022-12-06T09:49:21.592Z,1.87
2022-12-06T09:52:12.530Z,1.86
2022-12-06T09:54:45.013Z,1.86
2022-12-06T09:57:07.554Z,1.86
2022-12-06T09:59:31.556Z,1.88
2022-12-06T10:01:56.838Z,1.93
2022-12-06T10:04:29.625Z,1.96
2022-12-06T10:06:48.643Z,2.00
2022-12-06T10:09:30.284Z,1.99
2022-12-06T10:11:57.321Z,2.01
2022-12-06T10:14:22.893Z,2.01
2022-12-06T10:16:47.788Z,2.01
2022-12-06T10:19:18.980Z,2.01
2022-12-06T10:21:40.451Z,2.03
2022-12-06T10:24:09.650Z,2.00
2022-12-06T10:26:28.591Z,2.02
2022-12-06T10:28:49.914Z,2.03
2022-12-06T10:31:13.249Z,2.03
2022-12-06T10:33:46.064Z,2.05
2022-12-06T10:36:04.412Z,2.07
2022-12-06T10:38:30.622Z,2.09
2022-12-06T10:40:55.937Z,2.10
2022-12-06T10:43:15.930Z,2.12
2022-12-06T10:45:53.816Z,2.15
2022-12-06T10:48:16.642Z,2.17
2022-12-06T10:50:34.016Z,2.18
2022-12-06T10:52:49.908Z,2.19
2022-12-06T10:55:17.531Z,2.19
2022-12-06T10:57:39.895Z,2.20
2022-12-06T11:00:03.728Z,2.21
2022-12-06T11:02:31.207Z,2.20
2022-12-06T11:04:49.117Z,2.19
2022-12-06T11:07:05.944Z,2.18
2022-12-06T11:09:27.362Z,2.15
2022-12-06T11:11:43.650Z,2.11
2022-12-06T11:14:04.161Z,2.09
2022-12-06T11:16:22.108Z,2.09
2022-12-06T11:18:37.064Z,2.09
2022-12-06T11:20:54.592Z,2.10
2022-12-06T11:23:19.883Z,2.07
2022-12-06T11:25:38.158Z,2.07
2022-12-06T11:27:57.367Z,2.07
2022-12-06T11:30:21.018Z,2.06
2022-12-06T11:32:35.509Z,2.07
2022-12-06T11:34:53.394Z,2.08
2022-12-06T11:37:09.789Z,2.09
2022-12-06T11:39:22.946Z,2.10
2022-12-06T11:41:40.107Z,2.09
2022-12-06T11:43:54.326Z,2.07
2022-12-06T11:46:09.290Z,2.06
2022-12-06T11:48:25.908Z,2.04
2022-12-06T11:50:39.757Z,2.05
2022-12-06T11:52:57.132Z,2.04
2022-12-06T11:55:18.831Z,2.05
2022-12-06T11:57:37.672Z,2.06
2022-12-06T12:00:16.870Z,2.08
2022-12-06T12:02:36.891Z,2.10
2022-12-06T12:04:50.810Z,2.11
2022-12-06T12:07:07.802Z,2.14
2022-12-06T12:09:24.777Z,2.16
2022-12-06T12:11:42.647Z,2.17
2022-12-06T12:14:01.669Z,2.19
2022-12-06T12:16:19.953Z,2.21
2022-12-06T12:18:37.653Z,2.23
2022-12-06T12:20:52.423Z,2.25
2022-12-06T12:23:07.059Z,2.27
2022-12-06T12:25:31.328Z,2.29
2022-12-06T12:27:53.531Z,2.31
2022-12-06T12:30:17.080Z,2.33
2022-12-06T12:32:30.297Z,2.35
2022-12-06T12:34:43.311Z,2.36
2022-12-06T12:36:58.223Z,2.37
2022-12-06T12:39:24.744Z,2.38
2022-12-06T12:41:41.726Z,2.39
2022-12-06T12:44:37.027Z,2.40
2022-12-06T12:46:46.578Z,2.42
2022-12-06T12:49:18.594Z,2.43
2022-12-06T12:51:35.042Z,2.44
2022-12-06T12:53:50.514Z,2.47
2022-12-06T12:56:13.124Z,2.49
2022-12-06T12:58:30.502Z,2.51
2022-12-06T13:00:51.582Z,2.52
2022-12-06T13:03:34.461Z,2.53
2022-12-06T13:05:47.159Z,2.54
2022-12-06T13:08:07.860Z,2.56
2022-12-06T13:10:30.429Z,2.57
2022-12-06T13:12:46.538Z,2.57
2022-12-06T13:15:03.962Z,2.59
2022-12-06T13:17:18.455Z,2.58
2022-12-06T13:19:39.381Z,2.61
2022-12-06T13:21:54.204Z,2.61
2022-12-06T13:24:10.786Z,2.61
2022-12-06T13:26:29.543Z,2.61
2022-12-06T13:28:47.928Z,2.61
2022-12-06T13:31:06.883Z,2.62
2022-12-06T13:33:27.469Z,2.61
2022-12-06T13:35:46.035Z,2.63
2022-12-06T13:38:04.232Z,2.64
2022-12-06T13:40:47.083Z,2.64
2022-12-06T13:43:02.123Z,2.64
2022-12-06T13:45:46.574Z,2.64
2022-12-06T13:48:00.646Z,2.64
2022-12-06T13:50:55.783Z,2.63
2022-12-06T13:53:09.921Z,2.63
2022-12-06T13:55:59.588Z,2.63
2022-12-06T13:58:45.147Z,2.64
2022-12-06T14:00:59.395Z,2.62
2022-12-06T14:03:45.030Z,2.61
2022-12-06T14:06:15.169Z,2.61
2022-12-06T14:08:34.035Z,2.61
2022-12-06T14:10:48.218Z,2.61
2022-12-06T14:13:06.904Z,2.61
2022-12-06T14:15:25.289Z,2.61
2022-12-06T14:18:13.275Z,2.61
2022-12-06T14:20:26.448Z,2.62
2022-12-06T14:22:40.573Z,2.62
2022-12-06T14:25:04.817Z,2.61
2022-12-06T14:27:22.060Z,2.59
2022-12-06T14:29:36.463Z,2.58
2022-12-06T14:31:52.847Z,2.56
2022-12-06T14:34:06.075Z,2.54
2022-12-06T14:36:24.313Z,2.53
2022-12-06T14:38:37.578Z,2.55
2022-12-06T14:41:07.673Z,2.55
2022-12-06T14:43:24.334Z,2.55
2022-12-06T14:45:39.731Z,2.57
2022-12-06T14:47:53.036Z,2.57
2022-12-06T14:50:29.711Z,2.57
2022-12-06T14:53:11.645Z,2.58
2022-12-06T14:55:25.943Z,2.57
2022-12-06T14:57:40.912Z,2.57
2022-12-06T15:00:18.022Z,2.58
2022-12-06T15:02:36.105Z,2.58
2022-12-06T15:04:49.865Z,2.58
2022-12-06T15:07:03.828Z,2.58
2022-12-06T15:09:23.863Z,2.58
2022-12-06T15:11:59.710Z,2.57
2022-12-06T15:14:20.907Z,2.58
2022-12-06T15:16:34.981Z,2.59
2022-12-06T15:19:00.909Z,2.60
2022-12-06T15:21:17.359Z,2.60
2022-12-06T15:23:41.850Z,2.61
2022-12-06T15:25:55.917Z,2.58
2022-12-06T15:28:09.705Z,2.57
2022-12-06T15:30:23.949Z,2.57
2022-12-06T15:32:37.884Z,2.57
2022-12-06T15:34:51.073Z,2.55
2022-12-06T15:37:36.983Z,2.54
2022-12-06T15:39:39.196Z,2.55
2022-12-06T15:41:52.431Z,2.57
2022-12-06T15:44:07.367Z,2.59
2022-12-06T15:46:24.852Z,2.61
2022-12-06T15:48:38.926Z,2.62
2022-12-06T15:50:52.215Z,2.63
2022-12-06T15:53:06.639Z,2.64
2022-12-06T15:55:23.679Z,2.65
2022-12-06T15:57:37.034Z,2.66
2022-12-06T15:59:50.259Z,2.67
2022-12-06T16:02:03.510Z,2.67
2022-12-06T16:04:20.272Z,2.67
2022-12-06T16:06:33.736Z,2.67
2022-12-06T16:08:48.118Z,2.68
2022-12-06T16:11:11.785Z,2.69
2022-12-06T16:13:26.312Z,2.71
2022-12-06T16:15:40.482Z,2.72
2022-12-06T16:17:54.728Z,2.74
2022-12-06T16:20:31.914Z,2.75
2022-12-06T16:23:02.240Z,2.78
2022-12-06T16:25:16.738Z,2.79
2022-12-06T16:27:31.135Z,2.81
2022-12-06T16:29:44.548Z,2.84
2022-12-06T16:31:59.099Z,2.86
2022-12-06T16:34:13.064Z,2.90
2022-12-06T16:36:28.627Z,2.93
2022-12-06T16:38:41.933Z,2.93
2022-12-06T16:40:55.170Z,2.95
2022-12-06T16:43:08.727Z,2.98
2022-12-06T16:45:22.123Z,3.01
2022-12-06T16:47:35.860Z,3.03
2022-12-06T16:49:49.689Z,3.03
2022-12-06T16:52:03.386Z,3.03
2022-12-06T16:54:17.596Z,3.03
2022-12-06T16:56:32.078Z,3.03
2022-12-06T16:58:46.990Z,3.03
2022-12-06T17:01:04.300Z,3.02
2022-12-06T17:03:17.911Z,3.04
2022-12-06T17:05:32.341Z,3.04
2022-12-06T17:07:47.469Z,3.06
2022-12-06T17:10:01.724Z,3.08
2022-12-06T17:12:16.289Z,3.11
2022-12-06T17:14:29.831Z,3.13
2022-12-06T17:16:44.232Z,3.16
2022-12-06T17:18:58.438Z,3.19
2022-12-06T17:21:17.299Z,3.23
2022-12-06T17:23:31.112Z,3.26
2022-12-06T17:25:44.616Z,3.30
2022-12-06T17:27:58.237Z,3.33
2022-12-06T17:30:15.606Z,3.36
2022-12-06T17:32:29.235Z,3.38
2022-12-06T17:34:42.637Z,3.41
2022-12-06T17:36:58.578Z,3.43
2022-12-06T17:39:17.947Z,3.46
2022-12-06T17:41:52.032Z,3.48
2022-12-06T17:44:05.827Z,3.50
2022-12-06T17:46:19.643Z,3.53
2022-12-06T17:48:37.890Z,3.56
2022-12-06T17:50:54.870Z,3.59
2022-12-06T17:53:08.376Z,3.61
2022-12-06T17:55:21.572Z,3.63
2022-12-06T17:57:35.474Z,3.64
2022-12-06T17:59:49.053Z,3.68
2022-12-06T18:02:15.340Z,3.72
2022-12-06T18:04:31.788Z,3.76
2022-12-06T18:06:45.697Z,3.80
2022-12-06T18:08:59.955Z,3.87
2022-12-06T18:11:13.754Z,3.92
2022-12-06T18:13:27.508Z,4.00
2022-12-06T18:15:41.841Z,4.06
2022-12-06T18:17:55.269Z,4.12
2022-12-06T18:20:10.154Z,4.16
2022-12-06T18:22:23.235Z,4.19
2022-12-06T18:24:36.746Z,4.21
2022-12-06T18:26:50.603Z,4.23
2022-12-06T18:29:05.248Z,4.26
2022-12-06T18:31:18.715Z,4.29
2022-12-06T18:33:32.459Z,4.32
2022-12-06T18:35:46.132Z,4.35
2022-12-06T18:37:59.605Z,4.40
2022-12-06T18:40:13.856Z,4.43
2022-12-06T18:42:27.647Z,4.48
2022-12-06T18:44:41.088Z,4.55
2022-12-06T18:46:55.601Z,4.61
2022-12-06T18:49:09.724Z,4.65
2022-12-06T18:51:25.176Z,4.68
2022-12-06T18:53:38.580Z,4.72
2022-12-06T18:55:52.454Z,4.75
2022-12-06T18:58:05.651Z,4.79
2022-12-06T19:00:21.107Z,4.83
2022-12-06T19:02:34.667Z,4.87
2022-12-06T19:04:49.316Z,4.90
2022-12-06T19:07:02.354Z,4.93
2022-12-06T19:09:17.853Z,4.96
2022-12-06T19:11:31.330Z,5.06
2022-12-06T19:13:43.814Z,5.14
2022-12-06T19:16:03.467Z,5.20
2022-12-06T19:18:17.726Z,5.24
2022-12-06T19:20:31.423Z,5.33
2022-12-06T19:22:57.754Z,5.41
2022-12-06T19:25:12.955Z,5.47
2022-12-06T19:27:26.434Z,5.50
2022-12-06T19:29:39.549Z,5.51
2022-12-06T19:31:53.667Z,5.52
2022-12-06T19:34:07.170Z,5.54
2022-12-06T19:36:23.662Z,5.57
2022-12-06T19:38:38.267Z,5.59
2022-12-06T19:40:51.777Z,5.60
2022-12-06T19:43:23.281Z,5.59
2022-12-06T19:45:37.139Z,5.63
2022-12-06T19:47:50.952Z,5.65
2022-12-06T19:50:04.743Z,5.68
2022-12-06T19:52:18.650Z,5.71
2022-12-06T19:54:33.468Z,5.74
2022-12-06T19:56:46.316Z,5.77
2022-12-06T19:59:00.030Z,5.80
2022-12-06T20:01:18.122Z,5.81
2022-12-06T20:03:32.382Z,5.81
2022-12-06T20:05:46.310Z,5.83
2022-12-06T20:08:00.476Z,5.84
2022-12-06T20:10:15.040Z,5.85
2022-12-06T20:12:28.021Z,5.86
2022-12-06T20:14:46.488Z,5.89
2022-12-06T20:17:01.295Z,5.91
2022-12-06T20:19:16.611Z,5.93
2022-12-06T20:21:30.818Z,5.96
2022-12-06T20:23:43.836Z,6.00
2022-12-06T20:25:59.322Z,6.02
2022-12-06T20:28:13.782Z,6.04
2022-12-06T20:30:29.030Z,6.05
2022-12-06T20:32:43.113Z,6.04
2022-12-06T20:34:56.875Z,6.05
2022-12-06T20:37:11.635Z,6.07
2022-12-06T20:39:30.106Z,6.10
2022-12-06T20:41:44.239Z,6.10
2022-12-06T20:43:59.237Z,6.12
2022-12-06T20:46:15.475Z,6.12
2022-12-06T20:48:29.709Z,6.14
2022-12-06T20:50:44.259Z,6.15
2022-12-06T20:52:58.583Z,6.18
2022-12-06T20:55:13.142Z,6.18
2022-12-06T20:57:27.680Z,6.17
2022-12-06T20:59:41.842Z,6.18
2022-12-06T21:01:56.016Z,6.18
2022-12-06T21:04:09.153Z,6.19
2022-12-06T21:06:23.226Z,6.21
2022-12-06T21:08:38.283Z,6.23
2022-12-06T21:11:21.534Z,6.25
2022-12-06T21:13:29.369Z,6.26
2022-12-06T21:15:42.897Z,6.26
2022-12-06T21:17:57.386Z,6.26
2022-12-06T21:20:12.080Z,6.26
2022-12-06T21:22:25.917Z,6.27
2022-12-06T21:24:40.439Z,6.26
2022-12-06T21:26:54.345Z,6.29
2022-12-06T21:29:07.934Z,6.31
2022-12-06T21:31:20.793Z,6.35
2022-12-06T21:33:34.153Z,6.39
2022-12-06T21:35:47.711Z,6.44
2022-12-06T21:38:00.498Z,6.47
2022-12-06T21:40:15.428Z,6.50
2022-12-06T21:42:28.956Z,6.53
2022-12-06T21:44:43.209Z,6.58
2022-12-06T21:46:59.154Z,6.63
2022-12-06T21:49:14.821Z,6.66
2022-12-06T21:51:32.471Z,6.68
2022-12-06T21:53:46.403Z,6.71
2022-12-06T21:55:59.709Z,6.72
2022-12-06T21:58:13.760Z,6.73
2022-12-06T22:00:27.013Z,6.73
2022-12-06T22:02:40.694Z,6.71
2022-12-06T22:04:55.261Z,6.70
2022-12-06T22:07:09.237Z,6.69
2022-12-06T22:09:22.548Z,6.68
2022-12-06T22:11:36.854Z,6.68
2022-12-06T22:13:51.777Z,6.67
2022-12-06T22:16:06.837Z,6.67
2022-12-06T22:18:20.440Z,6.66
2022-12-06T22:20:33.396Z,6.66
2022-12-06T22:22:46.351Z,6.68
2022-12-06T22:25:00.605Z,6.69
2022-12-06T22:27:15.098Z,6.72
2022-12-06T22:29:29.438Z,6.76
2022-12-06T22:31:43.497Z,6.79
2022-12-06T22:33:57.464Z,6.79
2022-12-06T22:36:11.819Z,6.80
2022-12-06T22:38:25.452Z,6.83
2022-12-06T22:40:39.742Z,6.85
2022-12-06T22:42:53.339Z,6.88
2022-12-06T22:45:06.973Z,6.90
2022-12-06T22:47:20.629Z,6.92
2022-12-06T22:49:34.999Z,6.92
2022-12-06T22:51:48.151Z,6.92
2022-12-06T22:54:02.971Z,6.91
2022-12-06T22:56:16.936Z,6.91
2022-12-06T22:58:31.531Z,6.91
2022-12-06T23:00:48.729Z,6.90
2022-12-06T23:03:03.443Z,6.90
2022-12-06T23:05:16.681Z,6.90
2022-12-06T23:07:30.122Z,6.92
2022-12-06T23:09:44.160Z,6.90
2022-12-06T23:11:57.608Z,6.88
2022-12-06T23:14:11.659Z,6.87
2022-12-06T23:16:27.324Z,6.86
2022-12-06T23:18:41.374Z,6.85
2022-12-06T23:21:04.535Z,6.85
2022-12-06T23:23:17.631Z,6.84
2022-12-06T23:25:30.794Z,6.84
2022-12-06T23:27:43.935Z,6.84
2022-12-06T23:29:57.005Z,6.83
2022-12-06T23:32:11.986Z,6.82
2022-12-06T23:34:27.539Z,6.79
2022-12-06T23:36:41.170Z,6.78
2022-12-06T23:38:54.582Z,6.77
2022-12-06T23:41:13.075Z,6.76
2022-12-06T23:43:26.165Z,6.74
2022-12-06T23:45:40.290Z,6.74
2022-12-06T23:47:54.587Z,6.73
2022-12-06T23:50:09.016Z,6.71
2022-12-06T23:52:23.612Z,6.70
2022-12-06T23:54:37.188Z,6.68
2022-12-06T23:56:51.137Z,6.68
2022-12-06T23:59:06.059Z,6.68
